Terminal Aerodrome Forecast
Issued by NWS

Home | Current Version | Previous Version | Text Only | Print | Product List | Glossary On
Versions: 1 2 3 4 5 6 7 8 9 10 11 12 13 14 15 16 17 18 19 20 21 22 23 24 25 26 27 28 29 30 31 32 33 34 35 36
000
FTUS43 KLOT 271600 AAB
TAFDPA
TAF AMD
KDPA 271611Z 2716/2812 04010KT 6SM BR OVC018
      TEMPO 2716/2717 5SM BR
     FM272000 04007KT P6SM SCT030 SCT250
     FM280100 VRB03KT P6SM SCT250
     FM280700 15003KT 4SM BR SCT250=

USA.gov is the U.S. government's official web portal to all federal, state and local government web resources and services.